sensor_id;sensor_type;location;lat;lon;timestamp;P1;durP1;ratioP1;P2;durP2;ratioP2
19903;SDS011;10114;50.970;4.962;2022-12-18T00:01:30;62.10;;;22.70;;
19903;SDS011;10114;50.970;4.962;2022-12-18T00:03:58;55.03;;;19.53;;
19903;SDS011;10114;50.970;4.962;2022-12-18T00:06:25;61.73;;;20.67;;
19903;SDS011;10114;50.970;4.962;2022-12-18T00:08:51;56.43;;;20.73;;
19903;SDS011;10114;50.970;4.962;2022-12-18T00:11:19;65.33;;;22.13;;
19903;SDS011;10114;50.970;4.962;2022-12-18T00:13:46;60.47;;;20.53;;
19903;SDS011;10114;50.970;4.962;2022-12-18T00:16:13;47.87;;;19.07;;
19903;SDS011;10114;50.970;4.962;2022-12-18T00:18:39;60.47;;;21.77;;
19903;SDS011;10114;50.970;4.962;2022-12-18T00:21:07;69.53;;;23.73;;
19903;SDS011;10114;50.970;4.962;2022-12-18T00:23:33;58.17;;;21.07;;
19903;SDS011;10114;50.970;4.962;2022-12-18T00:26:00;61.03;;;21.47;;
19903;SDS011;10114;50.970;4.962;2022-12-18T00:28:27;59.93;;;21.07;;
19903;SDS011;10114;50.970;4.962;2022-12-18T00:31:00;59.70;;;21.53;;
19903;SDS011;10114;50.970;4.962;2022-12-18T00:33:26;52.37;;;19.97;;
19903;SDS011;10114;50.970;4.962;2022-12-18T00:35:52;56.57;;;19.73;;
19903;SDS011;10114;50.970;4.962;2022-12-18T00:38:18;61.53;;;21.70;;
19903;SDS011;10114;50.970;4.962;2022-12-18T00:40:44;60.37;;;21.07;;
19903;SDS011;10114;50.970;4.962;2022-12-18T00:43:10;55.80;;;19.63;;
19903;SDS011;10114;50.970;4.962;2022-12-18T00:45:36;56.17;;;21.00;;
19903;SDS011;10114;50.970;4.962;2022-12-18T00:48:03;56.57;;;20.43;;
19903;SDS011;10114;50.970;4.962;2022-12-18T00:50:29;51.53;;;19.53;;
19903;SDS011;10114;50.970;4.962;2022-12-18T00:52:55;50.20;;;18.33;;
19903;SDS011;10114;50.970;4.962;2022-12-18T00:55:21;51.20;;;18.70;;
19903;SDS011;10114;50.970;4.962;2022-12-18T00:57:47;46.27;;;16.77;;
19903;SDS011;10114;50.970;4.962;2022-12-18T01:00:14;52.53;;;18.03;;
19903;SDS011;10114;50.970;4.962;2022-12-18T01:02:40;42.40;;;16.73;;
19903;SDS011;10114;50.970;4.962;2022-12-18T01:05:07;40.53;;;17.27;;
19903;SDS011;10114;50.970;4.962;2022-12-18T01:07:33;50.87;;;17.00;;
19903;SDS011;10114;50.970;4.962;2022-12-18T01:09:59;43.90;;;16.80;;
19903;SDS011;10114;50.970;4.962;2022-12-18T01:12:25;44.30;;;17.07;;
19903;SDS011;10114;50.970;4.962;2022-12-18T01:14:51;44.07;;;17.37;;
19903;SDS011;10114;50.970;4.962;2022-12-18T01:17:18;47.47;;;17.57;;
19903;SDS011;10114;50.970;4.962;2022-12-18T01:19:44;50.73;;;18.53;;
19903;SDS011;10114;50.970;4.962;2022-12-18T01:22:10;51.73;;;19.10;;
19903;SDS011;10114;50.970;4.962;2022-12-18T01:24:36;53.73;;;16.87;;
19903;SDS011;10114;50.970;4.962;2022-12-18T01:27:02;46.07;;;18.43;;
19903;SDS011;10114;50.970;4.962;2022-12-18T01:29:28;46.33;;;17.20;;
19903;SDS011;10114;50.970;4.962;2022-12-18T01:31:55;53.77;;;18.30;;
19903;SDS011;10114;50.970;4.962;2022-12-18T01:34:22;56.27;;;17.63;;
19903;SDS011;10114;50.970;4.962;2022-12-18T01:36:48;52.53;;;18.70;;
19903;SDS011;10114;50.970;4.962;2022-12-18T01:39:17;45.10;;;17.33;;
19903;SDS011;10114;50.970;4.962;2022-12-18T01:41:43;54.53;;;19.33;;
19903;SDS011;10114;50.970;4.962;2022-12-18T01:47:32;60.80;;;19.07;;
19903;SDS011;10114;50.970;4.962;2022-12-18T01:49:59;57.07;;;17.77;;
19903;SDS011;10114;50.970;4.962;2022-12-18T01:52:28;52.57;;;19.00;;
19903;SDS011;10114;50.970;4.962;2022-12-18T01:54:54;52.10;;;18.37;;
19903;SDS011;10114;50.970;4.962;2022-12-18T01:57:21;51.90;;;19.80;;
19903;SDS011;10114;50.970;4.962;2022-12-18T01:59:49;54.93;;;19.80;;
19903;SDS011;10114;50.970;4.962;2022-12-18T02:02:16;51.63;;;18.33;;
19903;SDS011;10114;50.970;4.962;2022-12-18T02:04:42;48.20;;;18.53;;
19903;SDS011;10114;50.970;4.962;2022-12-18T02:09:43;45.17;;;17.57;;
19903;SDS011;10114;50.970;4.962;2022-12-18T02:17:19;45.90;;;16.57;;
19903;SDS011;10114;50.970;4.962;2022-12-18T02:20:08;48.47;;;15.57;;
19903;SDS011;10114;50.970;4.962;2022-12-18T02:22:38;51.33;;;17.27;;
19903;SDS011;10114;50.970;4.962;2022-12-18T02:27:48;39.47;;;17.27;;
19903;SDS011;10114;50.970;4.962;2022-12-18T02:30:14;39.93;;;15.57;;
19903;SDS011;10114;50.970;4.962;2022-12-18T02:32:42;37.10;;;14.07;;
19903;SDS011;10114;50.970;4.962;2022-12-18T02:35:11;42.07;;;15.73;;
19903;SDS011;10114;50.970;4.962;2022-12-18T02:37:38;41.27;;;14.77;;
19903;SDS011;10114;50.970;4.962;2022-12-18T02:40:05;46.67;;;15.43;;
19903;SDS011;10114;50.970;4.962;2022-12-18T02:42:31;39.30;;;16.20;;
19903;SDS011;10114;50.970;4.962;2022-12-18T02:44:58;39.23;;;16.60;;
19903;SDS011;10114;50.970;4.962;2022-12-18T02:47:25;43.00;;;15.10;;
19903;SDS011;10114;50.970;4.962;2022-12-18T02:52:29;37.43;;;15.03;;
19903;SDS011;10114;50.970;4.962;2022-12-18T03:00:40;35.77;;;14.57;;
19903;SDS011;10114;50.970;4.962;2022-12-18T03:03:09;44.47;;;14.60;;
19903;SDS011;10114;50.970;4.962;2022-12-18T03:05:41;37.63;;;14.67;;
19903;SDS011;10114;50.970;4.962;2022-12-18T03:10:35;40.17;;;15.10;;
19903;SDS011;10114;50.970;4.962;2022-12-18T03:13:12;41.83;;;14.40;;
19903;SDS011;10114;50.970;4.962;2022-12-18T03:15:43;33.00;;;13.60;;
19903;SDS011;10114;50.970;4.962;2022-12-18T03:18:15;47.50;;;17.00;;
19903;SDS011;10114;50.970;4.962;2022-12-18T03:20:42;37.37;;;15.17;;
19903;SDS011;10114;50.970;4.962;2022-12-18T03:23:09;35.43;;;13.10;;
19903;SDS011;10114;50.970;4.962;2022-12-18T03:25:38;37.07;;;13.77;;
19903;SDS011;10114;50.970;4.962;2022-12-18T03:28:05;42.27;;;16.63;;
19903;SDS011;10114;50.970;4.962;2022-12-18T03:30:34;42.07;;;15.47;;
19903;SDS011;10114;50.970;4.962;2022-12-18T03:33:16;44.37;;;15.27;;
19903;SDS011;10114;50.970;4.962;2022-12-18T03:35:44;37.27;;;13.97;;
19903;SDS011;10114;50.970;4.962;2022-12-18T03:38:11;38.40;;;15.00;;
19903;SDS011;10114;50.970;4.962;2022-12-18T03:43:17;43.13;;;14.83;;
19903;SDS011;10114;50.970;4.962;2022-12-18T03:45:51;41.60;;;13.90;;
19903;SDS011;10114;50.970;4.962;2022-12-18T03:50:57;41.20;;;14.67;;
19903;SDS011;10114;50.970;4.962;2022-12-18T03:56:00;34.27;;;13.30;;
19903;SDS011;10114;50.970;4.962;2022-12-18T03:58:27;36.60;;;13.47;;
19903;SDS011;10114;50.970;4.962;2022-12-18T04:00:56;34.37;;;15.03;;
19903;SDS011;10114;50.970;4.962;2022-12-18T04:03:23;41.57;;;14.53;;
19903;SDS011;10114;50.970;4.962;2022-12-18T04:05:50;30.37;;;12.87;;
19903;SDS011;10114;50.970;4.962;2022-12-18T04:08:16;33.67;;;13.87;;
19903;SDS011;10114;50.970;4.962;2022-12-18T04:10:42;34.70;;;13.53;;
19903;SDS011;10114;50.970;4.962;2022-12-18T04:13:09;34.07;;;13.60;;
19903;SDS011;10114;50.970;4.962;2022-12-18T04:15:35;31.77;;;13.57;;
19903;SDS011;10114;50.970;4.962;2022-12-18T04:18:02;33.33;;;12.80;;
19903;SDS011;10114;50.970;4.962;2022-12-18T04:20:28;29.67;;;12.40;;
19903;SDS011;10114;50.970;4.962;2022-12-18T04:22:55;30.43;;;10.83;;
19903;SDS011;10114;50.970;4.962;2022-12-18T04:25:21;34.43;;;12.47;;
19903;SDS011;10114;50.970;4.962;2022-12-18T04:27:47;27.20;;;12.10;;
19903;SDS011;10114;50.970;4.962;2022-12-18T04:30:13;36.63;;;13.03;;
19903;SDS011;10114;50.970;4.962;2022-12-18T04:32:39;31.40;;;12.07;;
19903;SDS011;10114;50.970;4.962;2022-12-18T04:35:05;30.40;;;10.83;;
19903;SDS011;10114;50.970;4.962;2022-12-18T04:37:35;30.07;;;11.07;;
19903;SDS011;10114;50.970;4.962;2022-12-18T04:40:01;28.23;;;11.13;;
19903;SDS011;10114;50.970;4.962;2022-12-18T04:42:27;19.03;;;8.60;;
19903;SDS011;10114;50.970;4.962;2022-12-18T04:44:53;25.80;;;9.97;;
19903;SDS011;10114;50.970;4.962;2022-12-18T04:47:19;28.50;;;10.77;;
19903;SDS011;10114;50.970;4.962;2022-12-18T04:49:45;28.80;;;10.77;;
19903;SDS011;10114;50.970;4.962;2022-12-18T04:52:11;30.47;;;11.57;;
19903;SDS011;10114;50.970;4.962;2022-12-18T04:54:37;20.90;;;9.33;;
19903;SDS011;10114;50.970;4.962;2022-12-18T04:57:03;29.63;;;11.17;;
19903;SDS011;10114;50.970;4.962;2022-12-18T04:59:29;29.77;;;12.17;;
19903;SDS011;10114;50.970;4.962;2022-12-18T05:01:55;30.23;;;11.37;;
19903;SDS011;10114;50.970;4.962;2022-12-18T05:04:21;26.23;;;11.23;;
19903;SDS011;10114;50.970;4.962;2022-12-18T05:06:47;30.77;;;11.47;;
19903;SDS011;10114;50.970;4.962;2022-12-18T05:09:13;29.03;;;10.57;;
19903;SDS011;10114;50.970;4.962;2022-12-18T05:11:39;24.27;;;9.53;;
19903;SDS011;10114;50.970;4.962;2022-12-18T05:14:05;28.27;;;11.23;;
19903;SDS011;10114;50.970;4.962;2022-12-18T05:16:31;27.97;;;11.27;;
19903;SDS011;10114;50.970;4.962;2022-12-18T05:18:57;27.93;;;10.30;;
19903;SDS011;10114;50.970;4.962;2022-12-18T05:21:23;26.77;;;9.97;;
19903;SDS011;10114;50.970;4.962;2022-12-18T05:23:49;26.67;;;10.40;;
19903;SDS011;10114;50.970;4.962;2022-12-18T05:26:16;27.43;;;11.27;;
19903;SDS011;10114;50.970;4.962;2022-12-18T05:28:43;25.80;;;11.17;;
19903;SDS011;10114;50.970;4.962;2022-12-18T05:31:09;30.40;;;11.43;;
19903;SDS011;10114;50.970;4.962;2022-12-18T05:33:35;27.93;;;10.80;;
19903;SDS011;10114;50.970;4.962;2022-12-18T05:36:02;36.60;;;11.37;;
19903;SDS011;10114;50.970;4.962;2022-12-18T05:38:29;31.83;;;11.53;;
19903;SDS011;10114;50.970;4.962;2022-12-18T05:40:55;31.50;;;11.27;;
19903;SDS011;10114;50.970;4.962;2022-12-18T05:43:22;25.63;;;10.93;;
19903;SDS011;10114;50.970;4.962;2022-12-18T05:45:48;29.97;;;11.17;;
19903;SDS011;10114;50.970;4.962;2022-12-18T05:48:15;28.30;;;11.50;;
19903;SDS011;10114;50.970;4.962;2022-12-18T05:50:41;25.20;;;10.03;;
19903;SDS011;10114;50.970;4.962;2022-12-18T05:53:08;32.93;;;10.33;;
19903;SDS011;10114;50.970;4.962;2022-12-18T05:55:35;23.73;;;10.23;;
19903;SDS011;10114;50.970;4.962;2022-12-18T05:58:02;23.40;;;9.60;;
19903;SDS011;10114;50.970;4.962;2022-12-18T06:00:29;25.87;;;9.47;;
19903;SDS011;10114;50.970;4.962;2022-12-18T06:02:55;36.40;;;15.35;;
19903;SDS011;10114;50.970;4.962;2022-12-18T06:05:21;32.47;;;12.80;;
19903;SDS011;10114;50.970;4.962;2022-12-18T06:07:47;29.80;;;11.03;;
19903;SDS011;10114;50.970;4.962;2022-12-18T06:10:13;28.07;;;11.10;;
19903;SDS011;10114;50.970;4.962;2022-12-18T06:12:39;21.17;;;9.73;;
19903;SDS011;10114;50.970;4.962;2022-12-18T06:15:05;29.70;;;11.00;;
19903;SDS011;10114;50.970;4.962;2022-12-18T06:17:32;24.33;;;10.33;;
19903;SDS011;10114;50.970;4.962;2022-12-18T06:19:58;24.53;;;10.63;;
19903;SDS011;10114;50.970;4.962;2022-12-18T06:22:24;24.57;;;10.07;;
19903;SDS011;10114;50.970;4.962;2022-12-18T06:24:51;25.43;;;9.97;;
19903;SDS011;10114;50.970;4.962;2022-12-18T06:27:17;23.93;;;9.70;;
19903;SDS011;10114;50.970;4.962;2022-12-18T06:29:43;26.77;;;10.87;;
19903;SDS011;10114;50.970;4.962;2022-12-18T06:32:09;26.13;;;10.80;;
19903;SDS011;10114;50.970;4.962;2022-12-18T06:34:37;20.63;;;9.00;;
19903;SDS011;10114;50.970;4.962;2022-12-18T06:37:03;23.53;;;9.80;;
19903;SDS011;10114;50.970;4.962;2022-12-18T06:39:29;24.57;;;9.70;;
19903;SDS011;10114;50.970;4.962;2022-12-18T06:41:55;24.20;;;9.70;;
19903;SDS011;10114;50.970;4.962;2022-12-18T06:44:21;24.47;;;10.27;;
19903;SDS011;10114;50.970;4.962;2022-12-18T06:46:47;28.57;;;11.03;;
19903;SDS011;10114;50.970;4.962;2022-12-18T06:49:13;23.87;;;9.47;;
19903;SDS011;10114;50.970;4.962;2022-12-18T06:51:41;28.97;;;10.83;;
19903;SDS011;10114;50.970;4.962;2022-12-18T06:54:07;26.13;;;10.63;;
19903;SDS011;10114;50.970;4.962;2022-12-18T06:56:33;29.30;;;10.27;;
19903;SDS011;10114;50.970;4.962;2022-12-18T06:58:59;30.23;;;11.10;;
19903;SDS011;10114;50.970;4.962;2022-12-18T07:01:25;28.33;;;10.00;;
19903;SDS011;10114;50.970;4.962;2022-12-18T07:03:52;22.80;;;8.80;;
19903;SDS011;10114;50.970;4.962;2022-12-18T07:06:19;27.83;;;11.37;;
19903;SDS011;10114;50.970;4.962;2022-12-18T07:08:46;26.90;;;10.50;;
19903;SDS011;10114;50.970;4.962;2022-12-18T07:11:12;23.23;;;9.20;;
19903;SDS011;10114;50.970;4.962;2022-12-18T07:13:39;19.50;;;8.93;;
19903;SDS011;10114;50.970;4.962;2022-12-18T07:16:05;25.50;;;8.37;;
19903;SDS011;10114;50.970;4.962;2022-12-18T07:18:32;34.00;;;11.10;;
19903;SDS011;10114;50.970;4.962;2022-12-18T07:20:58;28.63;;;9.73;;
19903;SDS011;10114;50.970;4.962;2022-12-18T07:23:27;23.77;;;8.90;;
19903;SDS011;10114;50.970;4.962;2022-12-18T07:25:53;23.73;;;10.17;;
19903;SDS011;10114;50.970;4.962;2022-12-18T07:28:19;22.73;;;8.07;;
19903;SDS011;10114;50.970;4.962;2022-12-18T07:30:45;24.20;;;9.07;;
19903;SDS011;10114;50.970;4.962;2022-12-18T07:33:11;27.47;;;9.83;;
19903;SDS011;10114;50.970;4.962;2022-12-18T07:35:37;28.47;;;10.03;;
19903;SDS011;10114;50.970;4.962;2022-12-18T07:38:03;18.90;;;8.17;;
19903;SDS011;10114;50.970;4.962;2022-12-18T07:40:29;15.50;;;7.07;;
19903;SDS011;10114;50.970;4.962;2022-12-18T07:42:56;22.57;;;8.00;;
19903;SDS011;10114;50.970;4.962;2022-12-18T07:45:22;20.17;;;8.13;;
19903;SDS011;10114;50.970;4.962;2022-12-18T07:47:48;24.23;;;9.13;;
19903;SDS011;10114;50.970;4.962;2022-12-18T07:50:14;16.87;;;7.83;;
19903;SDS011;10114;50.970;4.962;2022-12-18T07:52:40;23.60;;;8.37;;
19903;SDS011;10114;50.970;4.962;2022-12-18T07:55:06;25.97;;;9.27;;
19903;SDS011;10114;50.970;4.962;2022-12-18T07:57:32;19.97;;;8.17;;
19903;SDS011;10114;50.970;4.962;2022-12-18T07:59:58;16.67;;;7.27;;
19903;SDS011;10114;50.970;4.962;2022-12-18T08:02:24;22.43;;;8.40;;
19903;SDS011;10114;50.970;4.962;2022-12-18T08:04:50;26.40;;;9.03;;
19903;SDS011;10114;50.970;4.962;2022-12-18T08:07:16;19.47;;;8.90;;
19903;SDS011;10114;50.970;4.962;2022-12-18T08:09:42;19.27;;;8.17;;
19903;SDS011;10114;50.970;4.962;2022-12-18T08:12:08;19.83;;;8.97;;
19903;SDS011;10114;50.970;4.962;2022-12-18T08:14:34;22.33;;;9.97;;
19903;SDS011;10114;50.970;4.962;2022-12-18T08:17:00;19.40;;;8.57;;
19903;SDS011;10114;50.970;4.962;2022-12-18T08:19:26;16.53;;;7.53;;
19903;SDS011;10114;50.970;4.962;2022-12-18T08:21:52;22.93;;;9.20;;
19903;SDS011;10114;50.970;4.962;2022-12-18T08:24:19;16.57;;;7.53;;
19903;SDS011;10114;50.970;4.962;2022-12-18T08:26:45;21.60;;;9.23;;
19903;SDS011;10114;50.970;4.962;2022-12-18T08:29:11;23.13;;;9.87;;
19903;SDS011;10114;50.970;4.962;2022-12-18T08:31:37;18.23;;;8.33;;
19903;SDS011;10114;50.970;4.962;2022-12-18T08:34:03;20.33;;;8.57;;
19903;SDS011;10114;50.970;4.962;2022-12-18T08:36:29;16.80;;;7.90;;
19903;SDS011;10114;50.970;4.962;2022-12-18T08:38:56;16.10;;;7.23;;
19903;SDS011;10114;50.970;4.962;2022-12-18T08:41:22;21.93;;;8.90;;
19903;SDS011;10114;50.970;4.962;2022-12-18T08:43:48;16.77;;;7.97;;
19903;SDS011;10114;50.970;4.962;2022-12-18T08:46:37;21.13;;;10.07;;
19903;SDS011;10114;50.970;4.962;2022-12-18T08:49:04;16.87;;;6.67;;
19903;SDS011;10114;50.970;4.962;2022-12-18T08:51:30;23.13;;;9.47;;
19903;SDS011;10114;50.970;4.962;2022-12-18T08:53:59;25.03;;;9.00;;
19903;SDS011;10114;50.970;4.962;2022-12-18T08:56:26;12.43;;;6.87;;
19903;SDS011;10114;50.970;4.962;2022-12-18T08:58:52;20.10;;;8.10;;
19903;SDS011;10114;50.970;4.962;2022-12-18T09:01:18;20.50;;;8.43;;
19903;SDS011;10114;50.970;4.962;2022-12-18T09:03:45;21.13;;;8.07;;
19903;SDS011;10114;50.970;4.962;2022-12-18T09:06:13;21.30;;;8.53;;
19903;SDS011;10114;50.970;4.962;2022-12-18T09:08:40;20.37;;;8.47;;
19903;SDS011;10114;50.970;4.962;2022-12-18T09:11:11;19.70;;;8.43;;
19903;SDS011;10114;50.970;4.962;2022-12-18T09:13:38;17.93;;;8.63;;
19903;SDS011;10114;50.970;4.962;2022-12-18T09:16:04;20.23;;;8.37;;
19903;SDS011;10114;50.970;4.962;2022-12-18T09:18:30;19.60;;;8.63;;
19903;SDS011;10114;50.970;4.962;2022-12-18T09:20:56;21.07;;;7.77;;
19903;SDS011;10114;50.970;4.962;2022-12-18T09:23:22;20.03;;;7.37;;
19903;SDS011;10114;50.970;4.962;2022-12-18T09:25:48;23.23;;;9.17;;
19903;SDS011;10114;50.970;4.962;2022-12-18T09:28:15;20.47;;;7.70;;
19903;SDS011;10114;50.970;4.962;2022-12-18T09:30:43;16.40;;;7.93;;
19903;SDS011;10114;50.970;4.962;2022-12-18T09:33:10;17.33;;;7.17;;
19903;SDS011;10114;50.970;4.962;2022-12-18T09:35:36;19.90;;;7.93;;
19903;SDS011;10114;50.970;4.962;2022-12-18T09:38:02;16.40;;;6.23;;
19903;SDS011;10114;50.970;4.962;2022-12-18T09:40:29;19.80;;;8.47;;
19903;SDS011;10114;50.970;4.962;2022-12-18T09:42:59;16.53;;;8.03;;
19903;SDS011;10114;50.970;4.962;2022-12-18T09:45:26;16.35;;;7.68;;
19903;SDS011;10114;50.970;4.962;2022-12-18T09:47:53;19.30;;;7.87;;
19903;SDS011;10114;50.970;4.962;2022-12-18T09:50:29;21.80;;;9.67;;
19903;SDS011;10114;50.970;4.962;2022-12-18T09:52:57;25.97;;;9.80;;
19903;SDS011;10114;50.970;4.962;2022-12-18T09:55:29;19.00;;;7.90;;
19903;SDS011;10114;50.970;4.962;2022-12-18T09:57:57;19.73;;;7.80;;
19903;SDS011;10114;50.970;4.962;2022-12-18T10:00:25;20.58;;;7.72;;
19903;SDS011;10114;50.970;4.962;2022-12-18T10:02:51;17.87;;;7.47;;
19903;SDS011;10114;50.970;4.962;2022-12-18T10:15:33;22.73;;;8.90;;
19903;SDS011;10114;50.970;4.962;2022-12-18T10:18:04;19.90;;;8.55;;
19903;SDS011;10114;50.970;4.962;2022-12-18T10:20:40;17.60;;;8.07;;
19903;SDS011;10114;50.970;4.962;2022-12-18T10:25:38;22.20;;;8.57;;
19903;SDS011;10114;50.970;4.962;2022-12-18T10:28:12;14.33;;;7.30;;
19903;SDS011;10114;50.970;4.962;2022-12-18T10:30:39;18.13;;;8.25;;
19903;SDS011;10114;50.970;4.962;2022-12-18T10:33:05;14.80;;;7.97;;
19903;SDS011;10114;50.970;4.962;2022-12-18T10:35:31;19.83;;;8.35;;
19903;SDS011;10114;50.970;4.962;2022-12-18T10:38:19;19.40;;;8.45;;
19903;SDS011;10114;50.970;4.962;2022-12-18T10:43:16;16.42;;;7.72;;
19903;SDS011;10114;50.970;4.962;2022-12-18T10:45:57;18.00;;;6.78;;
19903;SDS011;10114;50.970;4.962;2022-12-18T10:48:24;22.42;;;9.65;;
19903;SDS011;10114;50.970;4.962;2022-12-18T10:50:50;17.80;;;8.20;;
19903;SDS011;10114;50.970;4.962;2022-12-18T10:53:22;13.23;;;6.20;;
19903;SDS011;10114;50.970;4.962;2022-12-18T10:55:48;18.90;;;8.48;;
19903;SDS011;10114;50.970;4.962;2022-12-18T10:58:24;19.55;;;7.57;;
19903;SDS011;10114;50.970;4.962;2022-12-18T11:06:02;18.02;;;8.43;;
19903;SDS011;10114;50.970;4.962;2022-12-18T11:08:29;20.38;;;8.00;;
19903;SDS011;10114;50.970;4.962;2022-12-18T11:10:55;18.17;;;7.88;;
19903;SDS011;10114;50.970;4.962;2022-12-18T11:13:22;17.08;;;8.68;;
19903;SDS011;10114;50.970;4.962;2022-12-18T11:15:49;18.45;;;8.57;;
19903;SDS011;10114;50.970;4.962;2022-12-18T11:18:20;17.70;;;8.30;;
19903;SDS011;10114;50.970;4.962;2022-12-18T11:20:55;19.05;;;8.57;;
19903;SDS011;10114;50.970;4.962;2022-12-18T11:23:22;17.33;;;8.07;;
19903;SDS011;10114;50.970;4.962;2022-12-18T11:26:02;20.63;;;8.15;;
19903;SDS011;10114;50.970;4.962;2022-12-18T11:28:49;20.05;;;8.30;;
19903;SDS011;10114;50.970;4.962;2022-12-18T11:33:52;19.17;;;8.65;;
19903;SDS011;10114;50.970;4.962;2022-12-18T11:36:19;20.98;;;9.30;;
19903;SDS011;10114;50.970;4.962;2022-12-18T11:38:47;18.10;;;8.77;;
19903;SDS011;10114;50.970;4.962;2022-12-18T11:41:16;21.15;;;10.32;;
19903;SDS011;10114;50.970;4.962;2022-12-18T11:43:47;26.98;;;9.60;;
19903;SDS011;10114;50.970;4.962;2022-12-18T11:46:17;18.17;;;8.77;;
19903;SDS011;10114;50.970;4.962;2022-12-18T11:48:49;19.05;;;8.77;;
19903;SDS011;10114;50.970;4.962;2022-12-18T11:51:19;20.70;;;9.02;;
19903;SDS011;10114;50.970;4.962;2022-12-18T11:53:47;21.88;;;9.65;;
19903;SDS011;10114;50.970;4.962;2022-12-18T12:09:37;19.98;;;9.05;;
19903;SDS011;10114;50.970;4.962;2022-12-18T12:15:05;26.58;;;9.98;;
19903;SDS011;10114;50.970;4.962;2022-12-18T12:20:08;24.60;;;11.25;;
19903;SDS011;10114;50.970;4.962;2022-12-18T12:30:36;22.27;;;10.40;;
19903;SDS011;10114;50.970;4.962;2022-12-18T12:35:52;20.70;;;10.10;;
19903;SDS011;10114;50.970;4.962;2022-12-18T12:38:25;23.48;;;10.75;;
19903;SDS011;10114;50.970;4.962;2022-12-18T12:40:59;24.60;;;10.13;;
19903;SDS011;10114;50.970;4.962;2022-12-18T12:43:37;23.45;;;9.93;;
19903;SDS011;10114;50.970;4.962;2022-12-18T12:46:14;20.13;;;10.10;;
19903;SDS011;10114;50.970;4.962;2022-12-18T12:48:47;23.35;;;9.95;;
19903;SDS011;10114;50.970;4.962;2022-12-18T12:51:34;18.42;;;9.30;;
19903;SDS011;10114;50.970;4.962;2022-12-18T12:54:01;19.27;;;9.90;;
19903;SDS011;10114;50.970;4.962;2022-12-18T12:56:42;20.95;;;9.85;;
19903;SDS011;10114;50.970;4.962;2022-12-18T13:04:23;18.33;;;10.07;;
19903;SDS011;10114;50.970;4.962;2022-12-18T13:09:25;22.00;;;10.45;;
19903;SDS011;10114;50.970;4.962;2022-12-18T13:11:55;20.67;;;10.68;;
19903;SDS011;10114;50.970;4.962;2022-12-18T13:14:46;21.70;;;10.57;;
19903;SDS011;10114;50.970;4.962;2022-12-18T13:19:52;24.10;;;10.30;;
19903;SDS011;10114;50.970;4.962;2022-12-18T13:22:29;23.17;;;10.35;;
19903;SDS011;10114;50.970;4.962;2022-12-18T13:24:56;20.67;;;10.18;;
19903;SDS011;10114;50.970;4.962;2022-12-18T13:33:21;24.92;;;10.63;;
19903;SDS011;10114;50.970;4.962;2022-12-18T13:38:23;24.30;;;11.30;;
19903;SDS011;10114;50.970;4.962;2022-12-18T13:45:49;25.35;;;11.43;;
19903;SDS011;10114;50.970;4.962;2022-12-18T13:48:16;25.83;;;11.35;;
19903;SDS011;10114;50.970;4.962;2022-12-18T13:50:43;23.85;;;10.82;;
19903;SDS011;10114;50.970;4.962;2022-12-18T13:53:16;22.92;;;11.65;;
19903;SDS011;10114;50.970;4.962;2022-12-18T13:55:46;24.92;;;10.82;;
19903;SDS011;10114;50.970;4.962;2022-12-18T13:58:12;22.10;;;11.18;;
19903;SDS011;10114;50.970;4.962;2022-12-18T14:00:41;23.95;;;11.23;;
19903;SDS011;10114;50.970;4.962;2022-12-18T14:03:24;23.13;;;11.45;;
19903;SDS011;10114;50.970;4.962;2022-12-18T14:06:03;28.27;;;12.00;;
19903;SDS011;10114;50.970;4.962;2022-12-18T14:08:36;25.58;;;12.20;;
19903;SDS011;10114;50.970;4.962;2022-12-18T14:11:04;27.55;;;12.95;;
19903;SDS011;10114;50.970;4.962;2022-12-18T14:13:38;26.83;;;12.95;;
19903;SDS011;10114;50.970;4.962;2022-12-18T14:16:06;31.60;;;12.15;;
19903;SDS011;10114;50.970;4.962;2022-12-18T14:21:02;26.05;;;13.02;;
19903;SDS011;10114;50.970;4.962;2022-12-18T14:28:46;28.02;;;12.25;;
19903;SDS011;10114;50.970;4.962;2022-12-18T14:31:22;30.65;;;12.65;;
19903;SDS011;10114;50.970;4.962;2022-12-18T14:33:48;25.88;;;11.85;;
19903;SDS011;10114;50.970;4.962;2022-12-18T14:36:16;34.67;;;12.20;;
19903;SDS011;10114;50.970;4.962;2022-12-18T14:38:42;24.85;;;12.32;;
19903;SDS011;10114;50.970;4.962;2022-12-18T14:41:12;22.17;;;11.23;;
19903;SDS011;10114;50.970;4.962;2022-12-18T14:43:42;27.27;;;13.52;;
19903;SDS011;10114;50.970;4.962;2022-12-18T14:48:53;27.30;;;13.07;;
19903;SDS011;10114;50.970;4.962;2022-12-18T14:51:20;26.52;;;13.00;;
19903;SDS011;10114;50.970;4.962;2022-12-18T14:53:47;26.70;;;12.82;;
19903;SDS011;10114;50.970;4.962;2022-12-18T14:56:33;25.40;;;12.18;;
19903;SDS011;10114;50.970;4.962;2022-12-18T15:04:29;27.55;;;11.68;;
19903;SDS011;10114;50.970;4.962;2022-12-18T15:09:30;25.38;;;12.30;;
19903;SDS011;10114;50.970;4.962;2022-12-18T15:11:57;26.90;;;11.65;;
19903;SDS011;10114;50.970;4.962;2022-12-18T15:14:28;27.42;;;11.70;;
19903;SDS011;10114;50.970;4.962;2022-12-18T15:16:57;23.63;;;11.60;;
19903;SDS011;10114;50.970;4.962;2022-12-18T15:19:26;25.02;;;11.75;;
19903;SDS011;10114;50.970;4.962;2022-12-18T15:21:58;26.75;;;12.07;;
19903;SDS011;10114;50.970;4.962;2022-12-18T15:24:27;25.20;;;12.18;;
19903;SDS011;10114;50.970;4.962;2022-12-18T15:26:55;31.95;;;13.55;;
19903;SDS011;10114;50.970;4.962;2022-12-18T15:29:22;30.15;;;14.20;;
19903;SDS011;10114;50.970;4.962;2022-12-18T15:32:00;30.48;;;12.57;;
19903;SDS011;10114;50.970;4.962;2022-12-18T15:34:26;25.70;;;12.52;;
19903;SDS011;10114;50.970;4.962;2022-12-18T15:36:52;29.33;;;12.93;;
19903;SDS011;10114;50.970;4.962;2022-12-18T15:39:18;27.77;;;12.45;;
19903;SDS011;10114;50.970;4.962;2022-12-18T15:41:44;26.83;;;12.02;;
19903;SDS011;10114;50.970;4.962;2022-12-18T15:44:29;32.15;;;14.20;;
19903;SDS011;10114;50.970;4.962;2022-12-18T15:46:55;28.02;;;12.50;;
19903;SDS011;10114;50.970;4.962;2022-12-18T15:49:22;24.50;;;11.57;;
19903;SDS011;10114;50.970;4.962;2022-12-18T15:51:51;27.25;;;11.95;;
19903;SDS011;10114;50.970;4.962;2022-12-18T15:54:18;28.65;;;12.10;;
19903;SDS011;10114;50.970;4.962;2022-12-18T15:57:04;29.83;;;12.60;;
19903;SDS011;10114;50.970;4.962;2022-12-18T15:59:48;28.73;;;12.90;;
19903;SDS011;10114;50.970;4.962;2022-12-18T16:02:16;27.98;;;12.07;;
19903;SDS011;10114;50.970;4.962;2022-12-18T16:04:43;28.00;;;11.88;;
19903;SDS011;10114;50.970;4.962;2022-12-18T16:07:10;27.10;;;11.82;;
19903;SDS011;10114;50.970;4.962;2022-12-18T16:09:36;30.08;;;11.70;;
19903;SDS011;10114;50.970;4.962;2022-12-18T16:12:03;26.73;;;13.05;;
19903;SDS011;10114;50.970;4.962;2022-12-18T16:14:30;30.92;;;12.73;;
19903;SDS011;10114;50.970;4.962;2022-12-18T16:19:22;30.75;;;12.65;;
19903;SDS011;10114;50.970;4.962;2022-12-18T16:21:49;31.90;;;14.32;;
19903;SDS011;10114;50.970;4.962;2022-12-18T16:24:17;29.33;;;12.65;;
19903;SDS011;10114;50.970;4.962;2022-12-18T16:26:43;29.17;;;11.85;;
19903;SDS011;10114;50.970;4.962;2022-12-18T16:29:09;25.50;;;13.20;;
19903;SDS011;10114;50.970;4.962;2022-12-18T16:31:36;28.25;;;13.07;;
19903;SDS011;10114;50.970;4.962;2022-12-18T16:36:50;25.90;;;11.15;;
19903;SDS011;10114;50.970;4.962;2022-12-18T16:39:16;31.50;;;11.07;;
19903;SDS011;10114;50.970;4.962;2022-12-18T16:41:42;29.00;;;12.00;;
19903;SDS011;10114;50.970;4.962;2022-12-18T16:44:08;28.98;;;13.18;;